METAR Data
IDs: Format: Raw Decoded Include TAF

Data at: 2156 UTC 10 May 2021

KPUB 102153Z 05013KT 10SM BKN011 OVC018 07/04 A3003 RMK AO2 SLP158 T00670044
KPUB 102145Z 06011KT 10SM BKN011 OVC018 07/04 A3003 RMK AO2 T00670044
KPUB 102053Z 10012KT 10SM SCT008 BKN015 OVC022 07/04 A3003 RMK AO2 SLP158 60001 T00720044 58005
KPUB 102032Z 08013KT 5SM BR BKN006 OVC016 07/05 A3003 RMK AO2 CIG 004V012 T00670050
KPUB 101953Z 10010KT 2SM R08R/5500VP6000FT BR BKN006 OVC023 06/05 A3003 RMK AO2 CIG 004V012 SLP163 T00610050
KPUB 101914Z 09011KT 2 1/2SM R08R/6000VP6000FT BR BKN005 OVC013 06/05 A3004 RMK AO2 CIG 003V009 T00610050
KPUB 101853Z 09011KT 1 1/4SM R08R/4000V5000FT BR OVC009 07/05 A3004 RMK AO2 RAB25E49 SLP163 P0001 T00670050
KPUB 101815Z 11010KT 1 3/4SM R08R/5000VP6000FT BR OVC009 06/04 A3005 RMK AO2 T00610044
KPUB 101753Z 11011KT 3SM BR OVC009 06/04 A3005 RMK AO2 SLP164 T00610044 10061 20044 56007
KPUB 101751Z 10010KT 2 1/2SM BR OVC009 06/04 A3005 RMK AO2
KPUB 101653Z 12011KT 9SM OVC009 06/03 A3006 RMK AO2 SLP167 T00610033
KPUB 101553Z 12012KT 4SM BR OVC006 06/04 A3007 RMK AO2 SLP171 T00560039
KPUB 101525Z 12014G20KT 4SM BR OVC006 05/03 A3008 RMK AO2 T00500033
KPUB 101514Z 13014KT 4SM BR OVC011 05/03 A3008 RMK AO2 CIG 008V013 T00500028
KPUB 101506Z 13014KT 2 1/2SM R08R/6000VP6000FT BR OVC011 05/03 A3008 RMK AO2 T00500028
KPUB 101453Z 12015KT 5SM BR OVC013 05/03 A3009 RMK AO2 SLP177 T00500028 58000
KPUB 101424Z 12012KT 4SM BR SCT005 OVC011 05/03 A3009 RMK AO2 T00500033
KPUB 101418Z 12012KT 2 1/2SM R08R/5500VP6000FT BR OVC007 05/03 A3009 RMK AO2 CIG 004V010 T00500033
KPUB 101401Z 14013KT 1 3/4SM R08R/5500V6000FT BR OVC006 05/03 A3010 RMK AO2 T00500033
KPUB 101353Z 14014KT 2SM R08R/6000VP6000FT BR OVC006 05/03 A3010 RMK AO2 SLP181 T00500033
KPUB 101300Z 13009KT 7SM OVC005 06/04 A3009 RMK AO2 T00560039
KPUB 101253Z 14012KT 6SM BR OVC004 06/04 A3009 RMK AO2 CIG 004V009 SLP177 T00560039
KPUB 101232Z 15013KT 7SM OVC004 06/04 A3008 RMK AO2 CIG 003V007 T00560044
KPUB 101200Z AUTO 15008KT 4SM BR BKN007 OVC011 05/04 A3009 RMK AO2 CIG 003V010 T00500044
KPUB 101153Z AUTO 14008KT 4SM BR FEW004 OVC011 05/04 A3009 RMK AO2 CIG 007V014 SLP175 60002 70003 T00500039 10072 20050 58009
KPUB 101146Z AUTO 13006KT 4SM BR SCT006 OVC011 05/04 A3009 RMK AO2 T00500039
KPUB 101139Z AUTO 12006KT 4SM BR BKN006 OVC011 05/04 A3010 RMK AO2 CIG 003V009 T00500039
KPUB 101117Z AUTO 11004KT 3SM BR FEW006 OVC012 05/04 A3011 RMK AO2 T00500039
KPUB 101053Z AUTO 07003KT 5SM BR OVC014 06/04 A3011 RMK AO2 SLP184 T00560039
KPUB 100953Z AUTO 09005KT 7SM BKN014 OVC022 06/03 A3012 RMK AO2 SLP185 T00610033
KPUB 100853Z AUTO 06006KT 10SM OVC017 06/03 A3012 RMK AO2 RAB0756E09 SLP186 P0000 60002 T00610033 56007
KPUB 100822Z AUTO 06005KT 10SM SCT020 OVC029 06/03 A3012 RMK AO2 RAB0756E09 P0000 T00610033
KPUB 100753Z AUTO 06005KT 10SM OVC031 06/03 A3012 RMK AO2 RAE13 SLP187 P0001 T00610028
KPUB 100653Z AUTO 09010KT 10SM -RA OVC041 06/03 A3013 RMK AO2 RAB00E39B52 SLP192 P0001 T00610033 401060061
KPUB 100553Z AUTO 09004KT 10SM OVC042 07/03 A3014 RMK AO2 RAB05E39 SLP195 P0000 60000 T00720028 10100 20072 53012
KPUB 100453Z AUTO 09005KT 10SM OVC046 08/02 A3013 RMK AO2 SLP190 T00830017
KPUB 100353Z AUTO 10007KT 10SM OVC040 08/01 A3011 RMK AO2 SLP184 T00830006
KPUB 100253Z 05009KT 10SM OVC042 09/01 A3010 RMK AO2 SLP180 T00890006 53011
KPUB 100153Z 07008KT 10SM OVC046 09/01 A3006 RMK AO2 SLP164 T00940006
KPUB 100053Z 08008KT 10SM BKN046 OVC110 10/00 A3006 RMK AO2 SLP160 T01000000
KPUB 092353Z 06005KT 10SM OVC047 10/00 A3006 RMK AO2 SLP161 T01000000 10106 20072 55002
KPUB 092253Z 13006KT 10SM OVC049 10/00 A3006 RMK AO2 SLP157 T01000000
KPUB 092153Z 14010KT 10SM FEW050 SCT055 OVC070 10/01 A3004 RMK AO2 SLP150 T01000011
KPUB 092053Z 15005KT 10SM FEW027 OVC048 09/02 A3007 RMK AO2 SLP162 T00940017 55016
KPUB 091953Z VRB03KT 10SM OVC048 09/02 A3007 RMK AO2 SLP163 T00890022
KPUB 091853Z 15005KT 10SM OVC045 08/02 A3010 RMK AO2 SLP174 T00780022
KPUB 091753Z 17007KT 10SM FEW019 BKN036 OVC050 08/03 A3013 RMK AO2 SLP181 60001 T00780033 10083 20061 58002
KPUB 091734Z 13007KT 10SM FEW017 BKN032 OVC045 07/03 A3013 RMK AO2 T00720028
KPUB 091653Z 00000KT 9SM SCT016 OVC024 07/03 A3014 RMK AO2 SLP187 T00670033
KPUB 091553Z 00000KT 5SM HZ BKN016 BKN021 OVC042 07/03 A3013 RMK AO2 SLP184 T00670033
KPUB 091549Z 21003KT 6SM HZ FEW014 SCT019 OVC042 07/03 A3013 RMK AO2
KPUB 091541Z 00000KT 8SM SCT014 BKN021 OVC042 07/03 A3013 RMK AO2 T00670033
KPUB 091502Z 11005KT 10SM FEW026 OVC037 07/03 A3013 RMK AO2 T00670033
KPUB 091453Z 12006KT 10SM BKN029 OVC039 07/03 A3013 RMK AO2 RAE35 SLP178 P0001 60001 T00670033 51022
KPUB 091419Z 14009KT 8SM -RA SCT029 OVC036 07/03 A3012 RMK AO2 P0001 T00670033
KPUB 091353Z 10013KT 7SM -RA BKN022 OVC033 07/02 A3012 RMK AO2 RAB32 SLP175 P0000 T00670022
KPUB 091301Z 09012KT 10SM BKN022 OVC032 08/02 A3009 RMK AO2 T00780022
KPUB 091253Z 09010KT 10SM SCT022 OVC031 08/03 A3009 RMK AO2 SLP157 T00830028
KPUB 091213Z 08013KT 10SM BKN030 OVC034 08/03 A3006 RMK AO2 T00830028
KPUB 091206Z 07012KT 10SM FEW019 BKN028 OVC034 08/03 A3006 RMK AO2 T00830028
KPUB 091153Z AUTO 07014KT 10SM FEW019 SCT026 OVC033 08/03 A3005 RMK AO2 SLP138 T00830033 10106 20083 53015
KPUB 091053Z AUTO 07014KT 10SM BKN023 OVC036 10/04 A3003 RMK AO2 SLP124 T01000044